Terminal Aerodrome Forecast
Issued by NWS

Home | Current Version | Previous Version | Text Only | Print | Product List | Glossary On
Versions: 1 2 3 4 5 6 7 8 9 10 11 12 13 14 15 16 17 18 19 20 21 22 23 24 25 26 27 28 29 30 31 32 33
000
FTUS44 KOUN 061120
TAFLAW
TAF
KLAW 061120Z 0612/0712 17013G19KT P6SM BKN013 OVC027
     FM061500 17016G26KT P6SM SCT030
     FM062300 17017G28KT P6SM OVC050
      TEMPO 0700/0704 6SM -TSRA BKN025CB
     FM070400 16012G19KT P6SM OVC030
      TEMPO 0704/0708 6SM -TSRA BKN020CB=

USA.gov is the U.S. government's official web portal to all federal, state and local government web resources and services.